sensor_id;sensor_type;location;lat;lon;timestamp;P1;durP1;ratioP1;P2;durP2;ratioP2
9234;SDS011;4652;42.716;23.218;2022-08-30T01:06:55;19.40;;;17.40;;
9234;SDS011;4652;42.716;23.218;2022-08-30T01:13:39;17.97;;;16.07;;
9234;SDS011;4652;42.716;23.218;2022-08-30T01:20:23;24.20;;;16.50;;
9234;SDS011;4652;42.716;23.218;2022-08-30T01:27:10;19.53;;;17.53;;
9234;SDS011;4652;42.716;23.218;2022-08-30T01:33:52;17.80;;;15.87;;
9234;SDS011;4652;42.716;23.218;2022-08-30T01:40:34;18.27;;;15.93;;
9234;SDS011;4652;42.716;23.218;2022-08-30T01:47:18;18.27;;;16.37;;
9234;SDS011;4652;42.716;23.218;2022-08-30T01:54:01;17.07;;;14.87;;
9234;SDS011;4652;42.716;23.218;2022-08-30T02:00:44;17.93;;;16.03;;
9234;SDS011;4652;42.716;23.218;2022-08-30T02:07:28;16.87;;;15.07;;
9234;SDS011;4652;42.716;23.218;2022-08-30T02:14:10;18.87;;;15.30;;
9234;SDS011;4652;42.716;23.218;2022-08-30T02:20:52;15.70;;;14.03;;
9234;SDS011;4652;42.716;23.218;2022-08-30T02:27:36;17.00;;;15.20;;
9234;SDS011;4652;42.716;23.218;2022-08-30T02:34:18;17.60;;;15.80;;
9234;SDS011;4652;42.716;23.218;2022-08-30T02:41:00;16.73;;;14.90;;
9234;SDS011;4652;42.716;23.218;2022-08-30T02:47:44;18.50;;;16.20;;
9234;SDS011;4652;42.716;23.218;2022-08-30T02:54:26;19.07;;;16.53;;
9234;SDS011;4652;42.716;23.218;2022-08-30T03:01:09;20.53;;;18.20;;
9234;SDS011;4652;42.716;23.218;2022-08-30T03:07:54;22.53;;;19.03;;
9234;SDS011;4652;42.716;23.218;2022-08-30T03:14:36;20.40;;;18.40;;
9234;SDS011;4652;42.716;23.218;2022-08-30T03:21:19;20.17;;;17.53;;
9234;SDS011;4652;42.716;23.218;2022-08-30T03:28:03;22.03;;;19.73;;
9234;SDS011;4652;42.716;23.218;2022-08-30T03:34:45;21.47;;;19.27;;
9234;SDS011;4652;42.716;23.218;2022-08-30T03:41:28;21.87;;;19.47;;
9234;SDS011;4652;42.716;23.218;2022-08-30T03:48:13;22.07;;;19.67;;
9234;SDS011;4652;42.716;23.218;2022-08-30T03:54:55;23.33;;;19.97;;
9234;SDS011;4652;42.716;23.218;2022-08-30T04:01:37;22.57;;;20.37;;
9234;SDS011;4652;42.716;23.218;2022-08-30T04:08:22;23.63;;;21.23;;
9234;SDS011;4652;42.716;23.218;2022-08-30T04:15:05;21.87;;;19.67;;
9234;SDS011;4652;42.716;23.218;2022-08-30T04:21:49;26.30;;;22.83;;
9234;SDS011;4652;42.716;23.218;2022-08-30T04:28:33;23.40;;;21.03;;
9234;SDS011;4652;42.716;23.218;2022-08-30T04:35:15;23.83;;;21.33;;
9234;SDS011;4652;42.716;23.218;2022-08-30T04:41:57;23.80;;;21.50;;
9234;SDS011;4652;42.716;23.218;2022-08-30T04:48:40;22.67;;;19.60;;
9234;SDS011;4652;42.716;23.218;2022-08-30T04:55:23;25.63;;;20.23;;
9234;SDS011;4652;42.716;23.218;2022-08-30T05:02:05;22.07;;;19.77;;
9234;SDS011;4652;42.716;23.218;2022-08-30T05:08:49;23.10;;;20.70;;
9234;SDS011;4652;42.716;23.218;2022-08-30T05:15:31;23.80;;;21.60;;
9234;SDS011;4652;42.716;23.218;2022-08-30T05:22:13;24.03;;;21.60;;
9234;SDS011;4652;42.716;23.218;2022-08-30T05:29:20;24.83;;;22.07;;
9234;SDS011;4652;42.716;23.218;2022-08-30T05:36:04;25.00;;;22.40;;
9234;SDS011;4652;42.716;23.218;2022-08-30T05:42:46;23.93;;;21.43;;
9234;SDS011;4652;42.716;23.218;2022-08-30T05:49:30;27.40;;;22.50;;
9234;SDS011;4652;42.716;23.218;2022-08-30T05:56:14;27.23;;;23.30;;
9234;SDS011;4652;42.716;23.218;2022-08-30T06:02:57;25.33;;;22.47;;
9234;SDS011;4652;42.716;23.218;2022-08-30T06:09:41;26.23;;;23.40;;
9234;SDS011;4652;42.716;23.218;2022-08-30T06:16:24;26.40;;;23.57;;
9234;SDS011;4652;42.716;23.218;2022-08-30T06:23:08;25.60;;;23.10;;
9234;SDS011;4652;42.716;23.218;2022-08-30T06:29:51;28.47;;;25.07;;
9234;SDS011;4652;42.716;23.218;2022-08-30T06:36:34;28.13;;;25.10;;
9234;SDS011;4652;42.716;23.218;2022-08-30T06:43:17;26.67;;;23.87;;
9234;SDS011;4652;42.716;23.218;2022-08-30T06:50:01;27.83;;;24.93;;
9234;SDS011;4652;42.716;23.218;2022-08-30T06:56:44;25.00;;;22.23;;
9234;SDS011;4652;42.716;23.218;2022-08-30T07:07:10;24.03;;;21.53;;
9234;SDS011;4652;42.716;23.218;2022-08-30T07:13:52;23.60;;;21.33;;
9234;SDS011;4652;42.716;23.218;2022-08-30T07:20:36;27.27;;;23.60;;
9234;SDS011;4652;42.716;23.218;2022-08-30T07:27:20;23.13;;;20.70;;
9234;SDS011;4652;42.716;23.218;2022-08-30T07:34:02;22.97;;;20.73;;
9234;SDS011;4652;42.716;23.218;2022-08-30T07:40:46;22.73;;;20.43;;
9234;SDS011;4652;42.716;23.218;2022-08-30T07:47:29;22.10;;;18.13;;
9234;SDS011;4652;42.716;23.218;2022-08-30T07:54:13;18.70;;;16.90;;
9234;SDS011;4652;42.716;23.218;2022-08-30T08:00:55;17.43;;;15.50;;
9234;SDS011;4652;42.716;23.218;2022-08-30T08:07:40;18.07;;;16.27;;
9234;SDS011;4652;42.716;23.218;2022-08-30T08:14:22;18.93;;;17.13;;
9234;SDS011;4652;42.716;23.218;2022-08-30T08:21:04;21.50;;;18.47;;
9234;SDS011;4652;42.716;23.218;2022-08-30T08:27:49;17.67;;;15.87;;
9234;SDS011;4652;42.716;23.218;2022-08-30T08:34:31;18.60;;;16.70;;
9234;SDS011;4652;42.716;23.218;2022-08-30T08:41:17;18.50;;;15.63;;
9234;SDS011;4652;42.716;23.218;2022-08-30T08:48:17;17.30;;;15.70;;
9234;SDS011;4652;42.716;23.218;2022-08-30T08:55:10;16.93;;;15.47;;
9234;SDS011;4652;42.716;23.218;2022-08-30T09:01:54;19.20;;;17.30;;
9234;SDS011;4652;42.716;23.218;2022-08-30T09:08:41;18.57;;;16.67;;
9234;SDS011;4652;42.716;23.218;2022-08-30T09:15:26;17.90;;;16.03;;
9234;SDS011;4652;42.716;23.218;2022-08-30T09:22:19;16.63;;;14.93;;
9234;SDS011;4652;42.716;23.218;2022-08-30T09:29:08;17.70;;;16.03;;
9234;SDS011;4652;42.716;23.218;2022-08-30T13:06:57;16.25;;;14.63;;
9234;SDS011;4652;42.716;23.218;2022-08-30T13:13:42;16.63;;;14.93;;
9234;SDS011;4652;42.716;23.218;2022-08-30T13:20:25;16.40;;;14.65;;
9234;SDS011;4652;42.716;23.218;2022-08-30T13:27:09;17.83;;;14.13;;
9234;SDS011;4652;42.716;23.218;2022-08-30T13:33:52;15.05;;;13.80;;
9234;SDS011;4652;42.716;23.218;2022-08-30T13:40:35;21.55;;;14.20;;
9234;SDS011;4652;42.716;23.218;2022-08-30T13:47:18;15.88;;;14.38;;
9234;SDS011;4652;42.716;23.218;2022-08-30T13:54:02;16.77;;;15.07;;
9234;SDS011;4652;42.716;23.218;2022-08-30T14:00:44;16.17;;;13.65;;
9234;SDS011;4652;42.716;23.218;2022-08-30T14:07:28;16.20;;;14.57;;
9234;SDS011;4652;42.716;23.218;2022-08-30T14:14:10;16.85;;;14.95;;
9234;SDS011;4652;42.716;23.218;2022-08-30T14:20:52;16.83;;;14.95;;
9234;SDS011;4652;42.716;23.218;2022-08-30T14:27:37;16.70;;;14.55;;
9234;SDS011;4652;42.716;23.218;2022-08-30T14:34:19;19.45;;;15.70;;
9234;SDS011;4652;42.716;23.218;2022-08-30T14:41:02;17.80;;;15.93;;
9234;SDS011;4652;42.716;23.218;2022-08-30T14:47:46;19.13;;;15.80;;
9234;SDS011;4652;42.716;23.218;2022-08-30T14:54:29;18.13;;;16.42;;
9234;SDS011;4652;42.716;23.218;2022-08-30T15:01:13;18.15;;;16.23;;
9234;SDS011;4652;42.716;23.218;2022-08-30T15:07:57;18.58;;;16.77;;
9234;SDS011;4652;42.716;23.218;2022-08-30T15:14:39;18.08;;;16.35;;
9234;SDS011;4652;42.716;23.218;2022-08-30T15:21:23;18.73;;;16.73;;
9234;SDS011;4652;42.716;23.218;2022-08-30T15:28:07;17.75;;;15.93;;
9234;SDS011;4652;42.716;23.218;2022-08-30T15:34:50;21.48;;;17.70;;
9234;SDS011;4652;42.716;23.218;2022-08-30T15:41:32;18.50;;;16.67;;
9234;SDS011;4652;42.716;23.218;2022-08-30T15:48:17;21.58;;;17.67;;
9234;SDS011;4652;42.716;23.218;2022-08-30T15:54:59;21.08;;;18.85;;
9234;SDS011;4652;42.716;23.218;2022-08-30T16:01:41;19.77;;;17.95;;
9234;SDS011;4652;42.716;23.218;2022-08-30T16:08:25;19.10;;;17.27;;
9234;SDS011;4652;42.716;23.218;2022-08-30T16:15:08;20.85;;;17.73;;
9234;SDS011;4652;42.716;23.218;2022-08-30T16:21:50;19.35;;;16.63;;
9234;SDS011;4652;42.716;23.218;2022-08-30T16:28:34;20.48;;;15.95;;
9234;SDS011;4652;42.716;23.218;2022-08-30T16:35:17;18.77;;;16.50;;
9234;SDS011;4652;42.716;23.218;2022-08-30T16:41:59;17.67;;;15.88;;
9234;SDS011;4652;42.716;23.218;2022-08-30T16:48:44;19.40;;;17.40;;
9234;SDS011;4652;42.716;23.218;2022-08-30T16:55:26;21.53;;;17.77;;
9234;SDS011;4652;42.716;23.218;2022-08-30T17:02:08;21.47;;;18.03;;
9234;SDS011;4652;42.716;23.218;2022-08-30T17:08:52;20.10;;;18.03;;
9234;SDS011;4652;42.716;23.218;2022-08-30T17:15:34;21.23;;;18.53;;
9234;SDS011;4652;42.716;23.218;2022-08-30T17:22:16;20.67;;;18.53;;
9234;SDS011;4652;42.716;23.218;2022-08-30T17:28:59;23.50;;;19.13;;
9234;SDS011;4652;42.716;23.218;2022-08-30T17:35:42;22.43;;;19.60;;
9234;SDS011;4652;42.716;23.218;2022-08-30T17:42:24;21.23;;;19.13;;
9234;SDS011;4652;42.716;23.218;2022-08-30T17:49:08;19.37;;;17.47;;
9234;SDS011;4652;42.716;23.218;2022-08-30T17:55:50;19.53;;;17.53;;
9234;SDS011;4652;42.716;23.218;2022-08-30T18:02:32;20.33;;;18.40;;
9234;SDS011;4652;42.716;23.218;2022-08-30T18:09:16;26.57;;;18.90;;
9234;SDS011;4652;42.716;23.218;2022-08-30T18:15:58;24.97;;;20.00;;
9234;SDS011;4652;42.716;23.218;2022-08-30T18:22:42;21.13;;;18.87;;
9234;SDS011;4652;42.716;23.218;2022-08-30T18:29:26;25.93;;;20.17;;
9234;SDS011;4652;42.716;23.218;2022-08-30T18:36:10;24.83;;;21.13;;
9234;SDS011;4652;42.716;23.218;2022-08-30T18:42:53;22.23;;;20.07;;
9234;SDS011;4652;42.716;23.218;2022-08-30T18:49:36;24.57;;;21.57;;
9234;SDS011;4652;42.716;23.218;2022-08-30T18:56:19;24.10;;;21.50;;
9234;SDS011;4652;42.716;23.218;2022-08-30T19:06:59;23.73;;;21.27;;
9234;SDS011;4652;42.716;23.218;2022-08-30T19:13:41;23.17;;;20.73;;
9234;SDS011;4652;42.716;23.218;2022-08-30T19:20:24;25.37;;;21.60;;
9234;SDS011;4652;42.716;23.218;2022-08-30T19:27:08;25.67;;;21.93;;
9234;SDS011;4652;42.716;23.218;2022-08-30T19:33:50;24.27;;;21.83;;
9234;SDS011;4652;42.716;23.218;2022-08-30T19:40:32;26.73;;;23.17;;
9234;SDS011;4652;42.716;23.218;2022-08-30T19:47:16;25.30;;;22.60;;
9234;SDS011;4652;42.716;23.218;2022-08-30T19:53:58;24.80;;;22.10;;
9234;SDS011;4652;42.716;23.218;2022-08-30T20:00:40;24.47;;;21.80;;
9234;SDS011;4652;42.716;23.218;2022-08-30T20:07:25;24.53;;;20.63;;
9234;SDS011;4652;42.716;23.218;2022-08-30T20:14:10;23.90;;;21.30;;
9234;SDS011;4652;42.716;23.218;2022-08-30T20:20:53;23.13;;;20.53;;
9234;SDS011;4652;42.716;23.218;2022-08-30T20:27:36;23.03;;;19.87;;
9234;SDS011;4652;42.716;23.218;2022-08-30T20:34:20;25.90;;;21.63;;
9234;SDS011;4652;42.716;23.218;2022-08-30T20:41:07;25.93;;;22.03;;
9234;SDS011;4652;42.716;23.218;2022-08-30T20:47:52;24.37;;;21.77;;
9234;SDS011;4652;42.716;23.218;2022-08-30T20:54:35;22.50;;;20.13;;
9234;SDS011;4652;42.716;23.218;2022-08-30T21:01:17;21.47;;;19.27;;
9234;SDS011;4652;42.716;23.218;2022-08-30T21:08:01;23.27;;;20.73;;
9234;SDS011;4652;42.716;23.218;2022-08-30T21:14:43;20.13;;;18.00;;
9234;SDS011;4652;42.716;23.218;2022-08-30T21:21:25;20.53;;;17.80;;
9234;SDS011;4652;42.716;23.218;2022-08-30T21:28:11;19.97;;;18.00;;
9234;SDS011;4652;42.716;23.218;2022-08-30T21:34:53;21.10;;;17.27;;
9234;SDS011;4652;42.716;23.218;2022-08-30T21:41:53;24.80;;;18.00;;
9234;SDS011;4652;42.716;23.218;2022-08-30T21:48:38;20.07;;;17.03;;
9234;SDS011;4652;42.716;23.218;2022-08-30T21:55:21;18.97;;;16.60;;
9234;SDS011;4652;42.716;23.218;2022-08-30T22:02:03;18.90;;;16.87;;
9234;SDS011;4652;42.716;23.218;2022-08-30T22:08:47;19.80;;;16.97;;
9234;SDS011;4652;42.716;23.218;2022-08-30T22:15:29;19.13;;;16.30;;
9234;SDS011;4652;42.716;23.218;2022-08-30T22:22:11;18.73;;;16.87;;
9234;SDS011;4652;42.716;23.218;2022-08-30T22:28:56;19.20;;;16.27;;
9234;SDS011;4652;42.716;23.218;2022-08-30T22:35:37;20.13;;;16.40;;
9234;SDS011;4652;42.716;23.218;2022-08-30T22:42:20;17.63;;;15.90;;
9234;SDS011;4652;42.716;23.218;2022-08-30T22:49:04;18.53;;;16.63;;
9234;SDS011;4652;42.716;23.218;2022-08-30T22:55:48;20.80;;;16.30;;
9234;SDS011;4652;42.716;23.218;2022-08-30T23:02:31;18.77;;;16.77;;
9234;SDS011;4652;42.716;23.218;2022-08-30T23:09:16;21.30;;;18.00;;
9234;SDS011;4652;42.716;23.218;2022-08-30T23:15:59;19.57;;;16.80;;
9234;SDS011;4652;42.716;23.218;2022-08-30T23:22:42;19.23;;;17.20;;
9234;SDS011;4652;42.716;23.218;2022-08-30T23:29:26;19.27;;;17.27;;
9234;SDS011;4652;42.716;23.218;2022-08-30T23:36:26;17.93;;;16.03;;
9234;SDS011;4652;42.716;23.218;2022-08-30T23:43:25;20.97;;;17.10;;
9234;SDS011;4652;42.716;23.218;2022-08-30T23:50:26;19.40;;;17.33;;
9234;SDS011;4652;42.716;23.218;2022-08-30T23:57:25;24.60;;;17.87;;
